Brillion, Wisconsin
Current Conditions -  °F | °C
As of 10:56 PM on Wednesday 22 Oct 2014 (Local Time) from KMTW Reporting Station
Clear Clear  
Wind Chill:   Ceiling: Unl
Heat Index:   Visibility: 9mi
Dew Point:   Wind: 3mph
Humidity: 100%   Direction: 180°S
Pressure: 30.27"   Gusts: NA
Location:  44.18°N, 88.06°W
Report Text: KMTW 230356Z AUTO 18003KT 9SM CLR 03/03 A3027 RMK AO2 SLP276 T00280028
Loading
Personal Weather Stations






























Interactive Weather Map
Tropical Storm Tracking
New forecast layout! Learn more

10-Day Weather Forecast

Advertisements
Track Severe Weather on mobile